Time;durP1;ratioP1;P1;durP2;ratioP2;P2;SDS_P1;SDS_P2;PMS_P1;PMS_P2;Temp;Humidity;BMP_temperature;BMP_pressure;BME280_temperature;BME280_humidity;BME280_pressure;Samples;Min_cycle;Max_cycle;Signal;HPM_P1;HPM_P2
2023/11/24 00:01:59;;;;;;;4.05;1.38;;;10.80;99.90;;;10.20;100.00;102322.72;4151317;28;20026;-75
2023/11/24 00:04:00;;;;;;;5.45;1.40;;;10.90;99.90;;;10.22;100.00;102319.97;4168781;28;20034;-75
2023/11/24 00:06:01;;;;;;;6.78;2.65;;;10.80;99.90;;;10.23;100.00;102319.03;4151308;28;20072;-75
2023/11/24 00:08:04;;;;;;;6.60;2.00;;;10.80;99.90;;;10.16;100.00;102309.88;4151362;28;20067;-75
2023/11/24 00:10:07;;;;;;;6.80;1.48;;;10.80;99.90;;;10.17;100.00;102308.94;4168648;28;20441;-75
2023/11/24 00:12:08;;;;;;;8.30;2.20;;;10.80;99.90;;;10.17;100.00;102303.66;4151426;28;20033;-75
2023/11/24 00:14:08;;;;;;;6.50;2.47;;;10.80;99.90;;;10.19;100.00;102302.56;4151237;28;20595;-76
2023/11/24 00:16:09;;;;;;;4.95;1.73;;;10.80;99.90;;;10.17;100.00;102303.66;4168585;28;20021;-75
2023/11/24 00:18:11;;;;;;;9.40;2.40;;;10.80;99.90;;;10.14;100.00;102304.72;4168719;28;20029;-75
2023/11/24 00:20:14;;;;;;;6.28;1.95;;;10.80;99.90;;;10.16;100.00;102307.22;4168691;28;20511;-75
2023/11/24 00:22:15;;;;;;;7.97;1.70;;;10.80;99.90;;;10.17;100.00;102303.66;4179493;28;20028;-75
2023/11/24 00:24:16;;;;;;;4.85;1.48;;;10.80;99.90;;;10.16;100.00;102296.69;4184000;28;20442;-75
2023/11/24 00:26:20;;;;;;;3.20;1.38;;;10.80;99.90;;;10.16;100.00;102296.69;4168439;28;20108;-75
2023/11/24 00:28:21;;;;;;;6.88;1.48;;;10.80;99.90;;;10.16;100.00;102294.06;4151643;28;20088;-75
2023/11/24 00:30:22;;;;;;;4.38;1.42;;;10.80;99.90;;;10.19;100.00;102294.66;4168554;28;20478;-75
2023/11/24 00:32:23;;;;;;;4.07;1.60;;;10.80;99.90;;;10.18;100.00;102289.53;4168866;28;20013;-75
2023/11/24 00:34:24;;;;;;;7.03;2.05;;;10.80;99.90;;;10.17;100.00;102285.19;4168586;28;20037;-75
2023/11/24 00:36:25;;;;;;;4.25;1.50;;;10.80;99.90;;;10.14;100.00;102281.00;4168484;28;20029;-75
2023/11/24 00:38:25;;;;;;;3.60;1.65;;;10.80;99.90;;;10.16;100.00;102283.50;4168442;28;20029;-75
2023/11/24 00:40:26;;;;;;;4.40;1.50;;;10.80;99.90;;;10.15;100.00;102287.13;4150646;28;20022;-75
2023/11/24 00:42:29;;;;;;;4.55;1.65;;;10.80;99.90;;;10.15;100.00;102282.69;4168595;28;20037;-75
2023/11/24 00:44:30;;;;;;;6.47;1.83;;;10.80;99.90;;;10.13;100.00;102265.25;4168144;28;20045;-75
2023/11/24 00:46:30;;;;;;;4.10;1.73;;;10.80;99.90;;;10.15;100.00;102263.38;4150915;28;20053;-75
2023/11/24 00:48:32;;;;;;;8.40;2.05;;;10.80;99.90;;;10.13;100.00;102254.69;4150825;28;20044;-75
2023/11/24 00:50:34;;;;;;;5.82;1.40;;;10.80;99.90;;;10.13;100.00;102244.16;4168503;28;20033;-75
2023/11/24 00:52:35;;;;;;;4.63;1.40;;;10.80;99.90;;;10.13;100.00;102255.56;4159892;28;20463;-75
2023/11/24 00:54:36;;;;;;;8.07;1.40;;;10.80;99.90;;;10.10;100.00;102244.38;4168192;28;20033;-75
2023/11/24 00:56:36;;;;;;;4.22;2.08;;;10.80;99.90;;;10.12;100.00;102253.88;4150781;28;20029;-75
2023/11/24 00:58:37;;;;;;;3.45;1.25;;;10.80;99.90;;;10.14;100.00;102262.53;4168413;28;20038;-75
2023/11/24 01:00:38;;;;;;;3.97;1.27;;;10.70;99.90;;;10.13;100.00;102244.16;4168309;28;20025;-75
2023/11/24 01:02:39;;;;;;;8.23;1.83;;;10.80;99.90;;;10.11;100.00;102241.66;4150735;28;20073;-75
2023/11/24 01:04:41;;;;;;;9.55;1.40;;;10.80;99.90;;;10.14;100.00;102246.72;4150771;28;20034;-75
2023/11/24 01:06:41;;;;;;;4.47;1.63;;;10.80;99.90;;;10.13;100.00;102233.59;4171554;28;20036;-75
2023/11/24 01:08:42;;;;;;;3.15;1.17;;;10.80;99.90;;;10.17;100.00;102235.09;4171504;28;20049;-75
2023/11/24 01:10:46;;;;;;;5.50;1.27;;;10.80;99.90;;;10.14;100.00;102219.50;4171244;28;20088;-75
2023/11/24 01:12:47;;;;;;;;;;;10.80;99.90;;;10.15;100.00;102216.78;4154337;28;20523;-75
2023/11/24 01:14:48;;;;;;;10.57;2.25;;;10.80;99.90;;;10.12;100.00;102210.84;4171650;28;19913;-75
2023/11/24 01:16:49;;;;;;;7.68;2.58;;;10.80;99.90;;;10.15;100.00;102222.03;4154025;28;20026;-75
2023/11/24 01:18:51;;;;;;;3.58;1.13;;;10.80;99.90;;;10.15;100.00;102218.56;4171314;28;20028;-75
2023/11/24 01:20:52;;;;;;;6.22;1.58;;;10.80;99.90;;;10.20;100.00;102219.03;4171230;28;20044;-75
2023/11/24 01:22:53;;;;;;;5.65;1.42;;;10.80;99.90;;;10.21;100.00;102215.47;4153806;28;20026;-75
2023/11/24 01:24:54;;;;;;;6.25;1.00;;;10.80;99.90;;;10.19;100.00;102202.38;4171190;28;20056;-75
2023/11/24 01:26:55;;;;;;;4.18;1.13;;;10.80;99.90;;;10.22;100.00;102209.19;4171218;28;20075;-75
2023/11/24 01:28:56;;;;;;;4.97;1.55;;;10.80;99.90;;;10.24;100.00;102207.31;4171047;28;20021;-75
2023/11/24 01:30:57;;;;;;;8.23;2.03;;;10.90;99.90;;;10.24;100.00;102202.03;4164868;28;20051;-76
2023/11/24 01:32:58;;;;;;;5.93;1.33;;;10.80;99.90;;;10.21;100.00;102207.53;4187662;28;20078;-75
2023/11/24 01:34:59;;;;;;;6.70;2.05;;;10.80;99.90;;;10.22;100.00;102202.13;4187563;28;20021;-75
2023/11/24 01:36:59;;;;;;;4.72;1.20;;;10.90;99.90;;;10.25;100.00;102206.34;4169949;28;20025;-75
2023/11/24 01:39:02;;;;;;;4.97;0.95;;;10.90;99.90;;;10.22;100.00;102196.88;4187349;28;20028;-75
2023/11/24 01:41:03;;;;;;;3.22;1.35;;;10.80;99.90;;;10.24;100.00;102194.97;4170343;28;20026;-75
2023/11/24 01:43:04;;;;;;;6.38;1.80;;;10.90;99.90;;;10.21;100.00;102191.72;4183171;28;20033;-75
2023/11/24 01:45:10;;;;;;;4.82;1.35;;;10.80;99.90;;;10.22;100.00;102182.84;4166379;28;20060;-75
2023/11/24 01:47:11;;;;;;;4.28;1.35;;;10.90;99.90;;;10.23;100.00;102192.44;4140997;28;20100;-75
2023/11/24 01:49:12;;;;;;;5.95;1.25;;;10.80;99.90;;;10.26;100.00;102198.31;4153411;28;20032;-75
2023/11/24 01:51:13;;;;;;;5.60;1.20;;;10.90;99.90;;;10.20;100.00;102200.56;4170881;28;20457;-75
2023/11/24 01:53:14;;;;;;;3.17;1.10;;;10.90;99.90;;;10.22;100.00;102198.66;4166345;28;20029;-75
2023/11/24 01:55:16;;;;;;;8.50;1.50;;;10.80;99.90;;;10.23;100.00;102192.44;4169524;28;20037;-75
2023/11/24 01:57:17;;;;;;;2.92;1.08;;;10.90;99.90;;;10.25;100.00;102188.72;4169589;28;20061;-75
2023/11/24 01:59:21;;;;;;;3.90;1.17;;;10.90;99.90;;;10.28;100.00;102191.13;4169606;28;20064;-75
2023/11/24 02:01:28;;;;;;;5.07;1.55;;;10.80;99.90;;;10.27;100.00;102191.25;4170483;28;20025;-75
2023/11/24 02:03:29;;;;;;;4.65;1.15;;;10.80;99.90;;;10.28;100.00;102185.00;4153595;28;20033;-75
2023/11/24 02:05:29;;;;;;;5.80;1.38;;;10.90;99.90;;;10.30;100.00;102189.22;4170564;28;20444;-75
2023/11/24 02:07:30;;;;;;;3.97;1.23;;;10.90;99.90;;;10.29;100.00;102187.53;4152994;28;20022;-75
2023/11/24 02:09:33;;;;;;;6.47;1.45;;;10.90;99.90;;;10.29;100.00;102176.13;4153552;28;20033;-75
2023/11/24 02:11:33;;;;;;;2.97;0.98;;;10.90;99.90;;;10.29;100.00;102170.88;4187065;28;20434;-75
2023/11/24 02:13:34;;;;;;;10.88;2.67;;;10.90;99.90;;;10.28;100.00;102164.75;4186974;28;20017;-75
2023/11/24 02:15:35;;;;;;;4.10;1.77;;;10.90;99.90;;;10.28;100.00;102153.34;4186958;28;20032;-75
2023/11/24 02:17:37;;;;;;;3.13;1.23;;;10.90;99.90;;;10.31;100.00;102158.38;4186822;28;20017;-75
2023/11/24 02:19:38;;;;;;;2.25;1.45;;;10.90;99.90;;;10.29;100.00;102157.69;4169324;28;20033;-75
2023/11/24 02:21:39;;;;;;;1.90;1.33;;;10.90;99.90;;;10.29;100.00;102153.25;4169263;28;20040;-75
2023/11/24 02:23:39;;;;;;;3.95;1.05;;;10.90;99.90;;;10.29;100.00;102149.75;4186978;28;20033;-75
2023/11/24 02:25:40;;;;;;;6.18;1.40;;;10.90;99.90;;;10.29;100.00;102163.78;4168839;28;20033;-75
2023/11/24 02:27:41;;;;;;;4.65;1.27;;;10.90;99.90;;;10.24;100.00;102157.19;4186976;28;20025;-75
2023/11/24 02:29:42;;;;;;;6.97;1.30;;;10.90;99.90;;;10.28;100.00;102148.91;4186789;28;20024;-75
2023/11/24 02:31:43;;;;;;;5.57;1.35;;;10.90;99.90;;;10.35;100.00;102149.28;4169117;28;20021;-75
2023/11/24 02:33:48;;;;;;;9.55;2.30;;;11.00;99.90;;;10.33;100.00;102145.94;4186730;28;20021;-75
2023/11/24 02:35:48;;;;;;;;;;;10.90;99.90;;;10.28;100.00;102140.16;4187197;28;20024;-75
2023/11/24 02:37:49;;;;;;;6.15;1.90;;;10.90;99.90;;;10.28;100.00;102142.81;4169064;28;20532;-75
2023/11/24 02:39:50;;;;;;;5.28;1.45;;;10.90;99.90;;;10.24;100.00;102136.09;4186462;28;20043;-75
2023/11/24 02:41:51;;;;;;;4.78;1.50;;;10.90;99.90;;;10.28;100.00;102143.66;4168868;28;20036;-75
2023/11/24 02:43:52;;;;;;;3.42;1.45;;;10.90;99.90;;;10.27;100.00;102141.16;4168591;28;20064;-75
2023/11/24 02:45:53;;;;;;;9.55;1.73;;;10.90;99.90;;;10.25;100.00;102143.03;4186289;28;20041;-76
2023/11/24 02:47:53;;;;;;;3.80;1.40;;;10.90;99.90;;;10.30;100.00;102138.25;4163806;28;20410;-75
2023/11/24 02:49:54;;;;;;;6.32;2.10;;;10.90;99.90;;;10.26;100.00;102135.03;4169910;28;20386;-75
2023/11/24 02:51:55;;;;;;;7.15;1.67;;;10.90;99.90;;;10.29;100.00;102132.16;4154455;28;20049;-75
2023/11/24 02:53:56;;;;;;;5.40;1.67;;;10.90;99.90;;;10.28;100.00;102129.63;4186082;28;20039;-75
2023/11/24 02:55:57;;;;;;;6.00;1.88;;;10.90;99.90;;;10.29;100.00;102120.75;4168677;28;20034;-75
2023/11/24 02:57:58;;;;;;;4.47;1.20;;;10.90;99.90;;;10.27;100.00;102115.63;4168594;28;20404;-75
2023/11/24 02:59:59;;;;;;;7.28;1.60;;;10.90;99.90;;;10.25;100.00;102106.97;4168474;28;20579;-75
2023/11/24 03:02:00;;;;;;;6.35;1.90;;;10.90;99.90;;;10.28;100.00;102108.50;4168733;28;20100;-75
2023/11/24 03:04:01;;;;;;;4.78;1.52;;;10.90;99.90;;;10.31;100.00;102114.38;4186121;28;20033;-75
2023/11/24 03:06:05;;;;;;;10.02;2.28;;;10.90;99.90;;;10.25;100.00;102100.84;4186122;28;20044;-75
2023/11/24 03:08:07;;;;;;;6.63;1.60;;;10.90;99.90;;;10.24;100.00;102089.47;4166245;28;20040;-75
2023/11/24 03:10:09;;;;;;;6.20;2.70;;;10.90;99.90;;;10.21;100.00;102088.88;4168193;28;20090;-75
2023/11/24 03:12:11;;;;;;;5.00;1.85;;;10.90;99.90;;;10.23;100.00;102085.16;4152234;28;20489;-76
2023/11/24 03:14:12;;;;;;;5.43;2.50;;;10.90;99.90;;;10.26;100.00;102081.44;4169721;28;20025;-75
2023/11/24 03:16:13;;;;;;;4.72;2.10;;;10.90;99.90;;;10.25;100.00;102079.75;4151747;28;20036;-75
2023/11/24 03:18:14;;;;;;;6.28;2.35;;;10.90;99.90;;;10.29;100.00;102086.47;4152000;28;20034;-76
2023/11/24 03:20:15;;;;;;;10.23;3.53;;;10.90;99.90;;;10.28;100.00;102082.13;4169457;28;20030;-75
2023/11/24 03:22:16;;;;;;;7.00;2.90;;;10.90;99.90;;;10.26;100.00;102084.06;4151856;28;20026;-75
2023/11/24 03:24:17;;;;;;;6.53;2.03;;;10.90;99.90;;;10.28;100.00;102082.97;4151477;28;20076;-75
2023/11/24 03:26:17;;;;;;;5.78;2.20;;;10.90;99.90;;;10.29;100.00;102071.50;4165078;28;20029;-75
2023/11/24 03:28:19;;;;;;;10.68;1.92;;;10.90;99.90;;;10.26;100.00;102078.78;4167721;28;20481;-75
2023/11/24 03:30:20;;;;;;;4.25;1.80;;;10.90;99.90;;;10.29;100.00;102082.03;4168134;28;20044;-75
2023/11/24 03:32:20;;;;;;;6.75;2.60;;;10.90;99.90;;;10.27;100.00;102088.41;4185811;28;20021;-75
2023/11/24 03:34:21;;;;;;;8.65;1.80;;;10.90;99.90;;;10.26;100.00;102071.72;4168132;28;20029;-75
2023/11/24 03:36:22;;;;;;;6.15;1.95;;;10.90;99.90;;;10.27;100.00;102073.41;4185721;28;20025;-75
2023/11/24 03:38:24;;;;;;;6.15;2.10;;;10.90;99.90;;;10.24;100.00;102078.09;4167862;28;20033;-75
2023/11/24 03:40:25;;;;;;;5.60;1.55;;;10.90;99.90;;;10.27;100.00;102085.75;4167703;28;20054;-75
2023/11/24 03:42:26;;;;;;;7.20;2.15;;;10.90;99.90;;;10.25;100.00;102075.31;4167789;28;20071;-75
2023/11/24 03:44:27;;;;;;;9.95;2.97;;;10.90;99.90;;;10.26;100.00;102076.16;4157311;28;20049;-75
2023/11/24 03:46:27;;;;;;;10.63;3.78;;;10.90;99.90;;;10.28;100.00;102084.78;4169133;28;20026;-75
2023/11/24 03:48:30;;;;;;;12.50;3.15;;;10.90;99.90;;;10.25;100.00;102075.31;4168932;28;20034;-75
2023/11/24 03:50:30;;;;;;;9.05;3.05;;;10.90;99.90;;;10.27;100.00;102078.69;4172496;28;20029;-75
2023/11/24 03:52:33;;;;;;;5.78;1.92;;;10.90;99.90;;;10.29;100.00;102081.19;4182897;28;20087;-75
2023/11/24 03:54:33;;;;;;;8.68;2.75;;;10.90;99.90;;;10.25;100.00;102077.09;4156306;28;20140;-75
2023/11/24 03:56:34;;;;;;;5.63;2.53;;;10.90;99.90;;;10.27;100.00;102083.13;4134975;28;20034;-75
2023/11/24 03:58:35;;;;;;;6.03;2.00;;;10.90;99.90;;;10.27;100.00;102088.41;4151463;28;20045;-75
2023/11/24 04:00:36;;;;;;;8.43;2.55;;;10.90;99.90;;;10.27;100.00;102088.41;4151398;28;20036;-75
2023/11/24 04:02:38;;;;;;;5.28;2.20;;;10.90;99.90;;;10.27;100.00;102089.25;4168797;28;20040;-75
2023/11/24 04:04:38;;;;;;;9.55;2.15;;;10.90;99.90;;;10.30;100.00;102093.44;4151055;28;20105;-75
2023/11/24 04:06:39;;;;;;;6.38;2.08;;;10.90;99.90;;;10.27;100.00;102091.03;4168890;28;20034;-75
2023/11/24 04:08:40;;;;;;;6.57;2.03;;;10.90;99.90;;;10.30;100.00;102090.78;4151068;28;20014;-75
2023/11/24 04:10:42;;;;;;;10.32;2.13;;;10.90;99.90;;;10.29;100.00;102089.09;4157039;28;20436;-75
2023/11/24 04:12:42;;;;;;;8.00;2.00;;;10.90;99.90;;;10.28;100.00;102084.78;4168635;28;20048;-75
2023/11/24 04:14:43;;;;;;;5.63;2.03;;;10.90;99.90;;;10.28;100.00;102079.50;4163858;28;20037;-75
2023/11/24 04:16:44;;;;;;;6.80;1.95;;;10.90;99.90;;;10.32;100.00;102088.88;4167593;28;20029;-75
2023/11/24 04:18:45;;;;;;;11.85;3.15;;;10.90;99.90;;;10.30;100.00;102089.00;4167407;28;20029;-75
2023/11/24 04:20:46;;;;;;;11.65;2.95;;;10.90;99.90;;;10.28;100.00;102080.34;4150995;28;20452;-75
2023/11/24 04:22:47;;;;;;;6.97;2.10;;;10.90;99.90;;;10.29;100.00;102078.56;4167576;28;20033;-75
2023/11/24 04:24:48;;;;;;;5.70;2.22;;;10.90;99.90;;;10.30;100.00;102078.44;4170732;28;20026;-75
2023/11/24 04:26:49;;;;;;;9.00;2.75;;;10.90;99.90;;;10.28;100.00;102079.50;4168643;28;20022;-75
2023/11/24 04:28:50;;;;;;;7.25;2.20;;;10.90;99.90;;;10.29;100.00;102083.81;4168530;28;20026;-75
2023/11/24 04:30:52;;;;;;;12.38;2.38;;;10.90;99.90;;;10.30;100.00;102080.25;4168457;28;20401;-75
2023/11/24 04:32:53;;;;;;;7.93;1.98;;;10.90;99.90;;;10.30;100.00;102080.25;4151365;28;20032;-75
2023/11/24 04:34:54;;;;;;;6.25;2.67;;;10.90;99.90;;;10.29;100.00;102081.19;4151003;28;20034;-75
2023/11/24 04:36:55;;;;;;;6.22;2.60;;;10.90;99.90;;;10.29;100.00;102079.41;4168612;28;20031;-75
2023/11/24 04:38:56;;;;;;;6.90;2.45;;;10.90;99.90;;;10.30;100.00;102082.88;4150574;28;20026;-75
2023/11/24 04:40:57;;;;;;;6.85;2.15;;;10.90;99.90;;;10.30;100.00;102081.09;4170932;28;20496;-75
2023/11/24 04:42:57;;;;;;;7.90;2.78;;;10.90;99.90;;;10.32;100.00;102084.44;4154366;28;20033;-75
2023/11/24 04:44:58;;;;;;;8.60;2.55;;;10.90;99.90;;;10.33;100.00;102090.56;4182127;28;20049;-75
2023/11/24 04:47:00;;;;;;;6.60;2.42;;;10.90;99.90;;;10.36;100.00;102096.41;4169423;28;20064;-75
2023/11/24 04:49:03;;;;;;;6.32;1.77;;;10.90;99.90;;;10.32;100.00;102080.94;4187208;28;20021;-75
2023/11/24 04:51:05;;;;;;;8.25;1.98;;;11.00;99.90;;;10.37;100.00;102084.06;4153362;28;20460;-76
2023/11/24 04:53:06;;;;;;;5.70;2.13;;;10.90;99.90;;;10.32;100.00;102080.94;4184546;28;20025;-75
2023/11/24 04:55:07;;;;;;;7.13;2.30;;;11.00;99.90;;;10.34;100.00;102076.38;4152572;28;20097;-75
2023/11/24 04:57:09;;;;;;;9.93;2.38;;;10.90;99.90;;;10.36;100.00;102077.13;4153129;28;20137;-75
2023/11/24 04:59:10;;;;;;;9.00;2.20;;;11.00;99.90;;;10.33;100.00;102088.75;4170530;28;20053;-76
2023/11/24 05:01:11;;;;;;;8.38;2.38;;;10.90;99.90;;;10.33;100.00;102087.91;4152834;28;20032;-75
2023/11/24 05:03:12;;;;;;;9.63;2.10;;;10.90;99.90;;;10.34;100.00;102071.09;4170555;28;20037;-75
2023/11/24 05:05:13;;;;;;;10.05;2.13;;;10.90;99.90;;;10.35;100.00;102080.72;4165652;28;20032;-75
2023/11/24 05:07:17;;;;;;;8.50;2.00;;;10.90;99.90;;;10.31;100.00;102068.72;4186960;28;20036;-75
2023/11/24 05:09:18;;;;;;;;;;;10.90;99.90;;;10.28;100.00;102076.88;4174442;28;20072;-75
2023/11/24 05:11:19;;;;;;;7.38;2.22;;;10.90;99.90;;;10.29;100.00;102081.19;4167919;28;19912;-75
2023/11/24 05:13:20;;;;;;;4.63;1.65;;;10.90;99.90;;;10.27;100.00;102077.84;4170380;28;20029;-75
2023/11/24 05:15:21;;;;;;;9.55;2.28;;;10.90;99.90;;;10.27;100.00;102070.78;4171052;28;20059;-75
2023/11/24 05:17:22;;;;;;;7.22;2.72;;;10.90;99.90;;;10.29;100.00;102065.38;4169000;28;20029;-75
2023/11/24 05:19:22;;;;;;;8.05;2.28;;;10.90;99.90;;;10.27;100.00;102062.88;4186668;28;20108;-75
2023/11/24 05:21:23;;;;;;;3.63;1.85;;;10.90;99.90;;;10.26;100.00;102053.28;4169198;28;20056;-75
2023/11/24 05:23:24;;;;;;;6.43;2.50;;;10.90;99.90;;;10.27;100.00;102054.13;4168756;28;20039;-75
2023/11/24 05:25:25;;;;;;;7.65;2.55;;;10.90;99.90;;;10.29;100.00;102060.09;4170009;28;20018;-75
2023/11/24 05:27:26;;;;;;;8.93;3.00;;;10.90;99.90;;;10.28;100.00;102063.69;4170025;28;20060;-75
2023/11/24 05:29:27;;;;;;;8.35;2.13;;;10.90;99.90;;;10.29;100.00;102060.09;4170284;28;20030;-75
2023/11/24 05:31:28;;;;;;;17.35;3.10;;;10.90;99.90;;;10.27;100.00;102056.75;4170115;28;20028;-75
2023/11/24 05:33:30;;;;;;;8.23;2.75;;;10.90;99.90;;;10.29;100.00;102055.66;4152389;28;20026;-75
2023/11/24 05:35:31;;;;;;;7.55;3.15;;;10.90;99.90;;;10.31;100.00;102060.81;4150404;28;20045;-75
2023/11/24 05:37:32;;;;;;;8.10;2.40;;;10.90;99.90;;;10.31;100.00;102052.88;4158435;28;20025;-75
2023/11/24 05:39:40;;;;;;;9.50;3.63;;;10.90;99.90;;;10.30;100.00;102043.31;4169869;28;20032;-75
2023/11/24 05:41:41;;;;;;;6.82;2.55;;;10.90;99.90;;;10.31;100.00;102042.34;4153295;28;20113;-76
2023/11/24 05:43:41;;;;;;;7.25;2.88;;;10.90;99.90;;;10.27;100.00;102035.66;4171395;28;20033;-75
2023/11/24 05:45:42;;;;;;;5.55;2.22;;;10.90;99.90;;;10.29;100.00;102037.19;4125587;28;1267357;-75
2023/11/24 05:47:43;;;;;;;7.97;2.67;;;10.90;99.90;;;10.28;100.00;102039.94;4181952;28;20026;-75
2023/11/24 05:49:45;;;;;;;7.10;2.70;;;10.90;99.90;;;10.28;100.00;102035.50;4164876;28;20022;-75
2023/11/24 05:51:45;;;;;;;11.27;2.58;;;10.90;99.90;;;10.24;100.00;102023.56;4184424;28;20477;-75
2023/11/24 05:53:46;;;;;;;10.98;2.53;;;10.90;99.90;;;10.30;100.00;102035.41;4166617;28;20089;-75
2023/11/24 05:55:47;;;;;;;8.65;2.88;;;10.90;99.90;;;10.30;100.00;102030.13;4170761;28;20033;-75
2023/11/24 05:57:48;;;;;;;5.38;2.28;;;10.90;99.90;;;10.31;100.00;102032.63;4153174;28;20033;-75
2023/11/24 05:59:49;;;;;;;9.27;2.83;;;10.90;99.90;;;10.30;100.00;102019.59;4170579;28;20079;-75
2023/11/24 06:01:49;;;;;;;10.20;2.70;;;10.90;99.90;;;10.28;100.00;102017.06;4170838;28;20056;-75
2023/11/24 06:03:50;;;;;;;9.88;2.88;;;10.90;99.90;;;10.27;100.00;102006.66;4152975;28;20076;-75
2023/11/24 06:05:51;;;;;;;9.02;3.13;;;10.90;99.90;;;10.24;100.00;102004.25;4147510;28;20022;-75
2023/11/24 06:07:52;;;;;;;16.08;3.13;;;10.90;99.90;;;10.24;100.00;102010.38;4170177;28;20018;-75
2023/11/24 06:09:54;;;;;;;8.35;3.38;;;10.90;99.90;;;10.24;100.00;102009.53;4169200;28;20066;-75
2023/11/24 06:11:54;;;;;;;10.43;3.50;;;10.90;99.90;;;10.23;100.00;102015.75;4170550;28;20029;-75
2023/11/24 06:13:56;;;;;;;7.53;2.90;;;10.90;99.90;;;10.22;100.00;102021.97;4153100;28;20037;-75
2023/11/24 06:15:57;;;;;;;8.02;3.15;;;10.90;99.90;;;10.23;100.00;102015.75;4167604;28;20029;-75
2023/11/24 06:17:58;;;;;;;12.82;4.95;;;10.90;99.90;;;10.23;100.00;102019.22;4170674;28;20084;-75
2023/11/24 06:19:59;;;;;;;11.55;3.92;;;10.90;99.90;;;10.20;100.00;102005.44;4170433;28;20120;-75
2023/11/24 06:22:00;;;;;;;6.53;3.20;;;10.90;99.90;;;10.21;100.00;102009.78;4152998;28;20030;-75
2023/11/24 06:24:00;;;;;;;8.45;3.10;;;10.80;99.90;;;10.22;100.00;102006.16;4152325;28;20022;-75
2023/11/24 06:26:01;;;;;;;6.70;2.92;;;10.90;99.90;;;10.21;100.00;102000.06;4170236;28;20029;-75
2023/11/24 06:28:02;;;;;;;6.60;3.92;;;10.80;99.90;;;10.19;100.00;101999.31;4170304;28;20028;-75
2023/11/24 06:30:05;;;;;;;12.85;3.50;;;10.80;99.90;;;10.16;100.00;101996.09;4152725;28;20072;-75
2023/11/24 06:32:07;;;;;;;8.48;3.45;;;10.80;99.90;;;10.18;100.00;102010.00;4152694;28;20098;-75
2023/11/24 06:34:09;;;;;;;9.95;4.40;;;10.80;99.90;;;10.17;100.00;102003.91;4171324;28;20086;-75
2023/11/24 06:36:10;;;;;;;10.00;3.78;;;10.80;99.90;;;10.18;100.00;102002.94;4186686;28;20029;-75
2023/11/24 06:38:11;;;;;;;10.27;3.50;;;10.90;99.90;;;10.17;100.00;102003.06;4152419;28;20041;-75
2023/11/24 06:40:13;;;;;;;10.68;3.63;;;10.90;99.90;;;10.18;100.00;102000.31;4186396;28;20389;-75
2023/11/24 06:42:14;;;;;;;15.90;3.83;;;10.80;99.90;;;10.18;100.00;101995.03;4186648;28;20565;-75
2023/11/24 06:44:16;;;;;;;9.52;3.15;;;10.90;99.90;;;10.21;100.00;101996.59;4162731;28;20026;-75
2023/11/24 06:46:16;;;;;;;11.68;3.95;;;10.80;99.90;;;10.23;100.00;101997.28;4152106;28;20088;-75
2023/11/24 06:48:17;;;;;;;9.10;3.13;;;10.80;99.90;;;10.22;100.00;102000.88;4153004;28;20445;-75
2023/11/24 06:50:18;;;;;;;10.95;3.70;;;10.80;99.90;;;10.22;100.00;102000.88;4151019;28;20026;-75
2023/11/24 06:52:19;;;;;;;8.02;3.45;;;10.80;99.90;;;10.24;100.00;101994.53;4150309;28;20020;-75
2023/11/24 06:54:21;;;;;;;10.48;3.92;;;10.80;99.90;;;10.21;100.00;101997.44;4153077;28;20045;-76
2023/11/24 06:56:22;;;;;;;9.07;4.30;;;10.80;99.90;;;10.23;100.00;101994.66;4153575;28;20448;-75
2023/11/24 06:58:23;;;;;;;6.30;3.28;;;10.90;99.90;;;10.22;100.00;101992.97;4153365;28;20120;-75
2023/11/24 07:00:25;;;;;;;10.35;3.83;;;10.90;99.90;;;10.26;100.00;101997.03;4152287;28;20034;-75
2023/11/24 07:02:28;;;;;;;11.85;4.10;;;10.90;99.90;;;10.25;100.00;101998.84;4152802;28;20080;-75
2023/11/24 07:04:29;;;;;;;9.80;4.47;;;10.90;99.90;;;10.24;100.00;101991.91;4151927;28;20014;-75
2023/11/24 07:06:30;;;;;;;10.05;4.55;;;10.90;99.90;;;10.27;100.00;102001.38;4152124;28;20026;-75
2023/11/24 07:08:31;;;;;;;17.17;4.53;;;10.90;99.90;;;10.22;100.00;101988.53;4153024;28;20040;-75
2023/11/24 07:10:32;;;;;;;11.38;3.72;;;10.90;99.90;;;10.24;100.00;101998.97;4151828;28;20026;-75
2023/11/24 07:12:35;;;;;;;6.82;3.40;;;10.90;99.90;;;10.25;100.00;101987.44;4161294;28;20039;-75
2023/11/24 07:14:36;;;;;;;11.63;4.30;;;10.90;99.90;;;10.22;100.00;101985.06;4168318;28;20404;-75
2023/11/24 07:16:37;;;;;;;13.43;3.83;;;10.90;99.90;;;10.27;100.00;101989.03;4168338;28;20025;-75
2023/11/24 07:18:38;;;;;;;7.90;3.80;;;10.90;99.90;;;10.24;100.00;101978.72;4169573;28;20044;-75
2023/11/24 07:20:39;;;;;;;14.60;3.67;;;10.90;99.90;;;10.28;100.00;101984.56;4168224;28;20068;-75
2023/11/24 07:22:43;;;;;;;10.10;3.05;;;10.90;99.90;;;10.26;100.00;101992.63;4168266;28;20033;-75
2023/11/24 07:24:44;;;;;;;11.98;3.55;;;10.90;99.90;;;10.28;100.00;101984.56;4169145;28;20021;-75
2023/11/24 07:26:45;;;;;;;8.32;3.17;;;10.90;99.90;;;10.31;100.00;101985.16;4151937;28;20044;-75
2023/11/24 07:28:46;;;;;;;12.32;3.72;;;10.90;99.90;;;10.34;100.00;101981.44;4168322;28;20025;-75
2023/11/24 07:30:48;;;;;;;10.38;3.60;;;10.90;99.90;;;10.35;100.00;101994.50;4165973;28;20022;-75
2023/11/24 07:32:50;;;;;;;8.93;3.60;;;11.00;99.90;;;10.35;100.00;101986.59;4153807;28;20030;-75
2023/11/24 07:34:51;;;;;;;14.10;4.15;;;11.00;99.90;;;10.38;100.00;101988.16;4152833;28;20029;-75
2023/11/24 07:36:53;;;;;;;8.15;3.40;;;11.00;99.90;;;10.43;100.00;101993.88;4151677;28;20038;-75
2023/11/24 07:38:54;;;;;;;7.20;3.05;;;11.00;99.90;;;10.42;100.00;101986.94;4152601;28;20428;-75
2023/11/24 07:40:55;;;;;;;8.65;3.83;;;11.00;99.90;;;10.45;100.00;101981.41;4156323;28;20026;-75
2023/11/24 07:42:56;;;;;;;6.18;3.38;;;11.10;99.90;;;10.47;100.00;101982.97;4168099;28;20115;-75
2023/11/24 07:44:56;;;;;;;6.38;2.85;;;11.10;99.90;;;10.49;100.00;101972.28;4167807;28;20046;-75
2023/11/24 07:46:58;;;;;;;6.75;3.05;;;11.10;99.90;;;10.51;100.00;101971.19;4157085;28;20036;-75
2023/11/24 07:48:59;;;;;;;10.43;4.78;;;11.10;99.90;;;10.55;100.00;101975.25;4151560;28;20022;-75
2023/11/24 07:51:05;;;;;;;9.95;4.18;;;11.10;99.90;;;10.57;100.00;101969.03;4152849;28;20375;-75
2023/11/24 07:53:06;;;;;;;9.70;4.13;;;11.20;99.90;;;10.56;100.00;101978.72;4150834;28;20105;-75
2023/11/24 07:55:07;;;;;;;16.00;3.65;;;11.20;99.90;;;10.54;100.00;101970.94;4152165;28;20448;-75
2023/11/24 07:57:08;;;;;;;9.55;3.13;;;11.20;99.90;;;10.56;100.00;101968.19;4150597;28;20033;-75
2023/11/24 07:59:09;;;;;;;9.93;4.07;;;11.20;99.90;;;10.55;100.00;101975.25;4167845;28;20450;-75
2023/11/24 08:01:10;;;;;;;14.77;4.95;;;11.20;99.90;;;10.57;100.00;101975.94;4167887;28;20040;-75
2023/11/24 08:03:12;;;;;;;11.77;3.92;;;11.20;99.90;;;10.61;100.00;101973.06;4167512;28;20029;-75
2023/11/24 08:05:13;;;;;;;7.38;3.78;;;11.30;99.90;;;10.63;100.00;101972.00;4168948;28;20507;-75
2023/11/24 08:07:14;;;;;;;6.07;3.15;;;11.20;99.90;;;10.68;100.00;101983.00;4154917;28;20026;-75
2023/11/24 08:09:16;;;;;;;14.88;3.28;;;11.30;99.90;;;10.70;100.00;101986.34;4152371;28;20018;-75
2023/11/24 08:11:17;;;;;;;9.75;3.95;;;11.30;99.90;;;10.67;100.00;101980.47;4152151;28;20029;-75
2023/11/24 08:13:19;;;;;;;8.55;3.38;;;11.30;99.90;;;10.71;100.00;101977.47;4157109;28;20071;-75
2023/11/24 08:15:20;;;;;;;9.70;3.83;;;11.30;99.90;;;10.74;100.00;101976.38;4167477;28;20029;-75
2023/11/24 08:17:22;;;;;;;5.75;3.00;;;11.40;99.90;;;10.78;100.00;101969.91;4152956;28;20072;-75
2023/11/24 08:19:25;;;;;;;12.43;4.00;;;11.40;99.90;;;10.81;100.00;101972.28;4151107;28;20034;-75